sensor_id;sensor_type;location;lat;lon;timestamp;temperature;humidity
14529;DHT22;7351;51.194;4.098;2022-10-16T10:00:53;18.10;99.90
14529;DHT22;7351;51.194;4.098;2022-10-16T10:03:34;17.70;99.90
14529;DHT22;7351;51.194;4.098;2022-10-16T10:06:14;17.70;99.90
14529;DHT22;7351;51.194;4.098;2022-10-16T10:08:56;17.80;99.90
14529;DHT22;7351;51.194;4.098;2022-10-16T10:11:40;17.70;99.90
14529;DHT22;7351;51.194;4.098;2022-10-16T10:14:18;17.70;99.90
14529;DHT22;7351;51.194;4.098;2022-10-16T10:16:50;17.90;99.90
14529;DHT22;7351;51.194;4.098;2022-10-16T10:19:19;17.90;99.90
14529;DHT22;7351;51.194;4.098;2022-10-16T10:21:47;17.90;99.90
14529;DHT22;7351;51.194;4.098;2022-10-16T10:24:15;17.80;99.90
14529;DHT22;7351;51.194;4.098;2022-10-16T10:26:49;17.90;99.90
14529;DHT22;7351;51.194;4.098;2022-10-16T10:29:26;18.00;99.90
14529;DHT22;7351;51.194;4.098;2022-10-16T10:32:05;18.00;99.90
14529;DHT22;7351;51.194;4.098;2022-10-16T10:34:47;18.00;99.90
14529;DHT22;7351;51.194;4.098;2022-10-16T10:37:29;18.10;99.90
14529;DHT22;7351;51.194;4.098;2022-10-16T10:40:07;18.10;99.90
14529;DHT22;7351;51.194;4.098;2022-10-16T10:42:44;18.20;99.90
14529;DHT22;7351;51.194;4.098;2022-10-16T10:45:17;18.30;99.90
14529;DHT22;7351;51.194;4.098;2022-10-16T10:48:04;18.50;99.90
14529;DHT22;7351;51.194;4.098;2022-10-16T10:50:39;18.60;99.90
14529;DHT22;7351;51.194;4.098;2022-10-16T10:53:29;18.80;99.90
14529;DHT22;7351;51.194;4.098;2022-10-16T10:56:04;19.00;99.90
14529;DHT22;7351;51.194;4.098;2022-10-16T10:58:54;19.10;99.90
14529;DHT22;7351;51.194;4.098;2022-10-16T11:01:28;19.20;99.90
14529;DHT22;7351;51.194;4.098;2022-10-16T11:04:13;19.40;99.90
14529;DHT22;7351;51.194;4.098;2022-10-16T11:06:45;19.40;99.90
14529;DHT22;7351;51.194;4.098;2022-10-16T11:09:18;19.50;99.90
14529;DHT22;7351;51.194;4.098;2022-10-16T11:11:52;19.50;99.90
14529;DHT22;7351;51.194;4.098;2022-10-16T11:14:25;19.70;99.90
14529;DHT22;7351;51.194;4.098;2022-10-16T11:16:58;19.70;99.90
14529;DHT22;7351;51.194;4.098;2022-10-16T11:19:35;19.80;99.90
14529;DHT22;7351;51.194;4.098;2022-10-16T11:22:09;19.60;99.90
14529;DHT22;7351;51.194;4.098;2022-10-16T11:24:44;19.70;99.90
14529;DHT22;7351;51.194;4.098;2022-10-16T11:27:17;19.60;99.90
14529;DHT22;7351;51.194;4.098;2022-10-16T11:29:49;19.80;99.90
14529;DHT22;7351;51.194;4.098;2022-10-16T11:32:22;19.90;99.90
14529;DHT22;7351;51.194;4.098;2022-10-16T11:34:55;20.00;99.90
14529;DHT22;7351;51.194;4.098;2022-10-16T11:37:27;20.10;99.90
14529;DHT22;7351;51.194;4.098;2022-10-16T11:40:03;20.20;99.90
14529;DHT22;7351;51.194;4.098;2022-10-16T11:42:37;20.30;99.90
14529;DHT22;7351;51.194;4.098;2022-10-16T11:45:13;20.40;99.90
14529;DHT22;7351;51.194;4.098;2022-10-16T11:47:50;20.10;99.90
14529;DHT22;7351;51.194;4.098;2022-10-16T11:50:23;20.10;99.90
14529;DHT22;7351;51.194;4.098;2022-10-16T11:52:55;20.10;99.90
14529;DHT22;7351;51.194;4.098;2022-10-16T11:55:29;20.10;99.90
14529;DHT22;7351;51.194;4.098;2022-10-16T11:58:00;20.20;99.90
14529;DHT22;7351;51.194;4.098;2022-10-16T12:00:31;20.30;99.90
14529;DHT22;7351;51.194;4.098;2022-10-16T12:03:05;20.30;99.90
14529;DHT22;7351;51.194;4.098;2022-10-16T12:05:59;20.20;99.90
14529;DHT22;7351;51.194;4.098;2022-10-16T12:08:29;20.00;99.90
14529;DHT22;7351;51.194;4.098;2022-10-16T12:11:07;19.90;99.90
14529;DHT22;7351;51.194;4.098;2022-10-16T12:13:36;19.80;99.90
14529;DHT22;7351;51.194;4.098;2022-10-16T12:16:20;19.80;99.90
14529;DHT22;7351;51.194;4.098;2022-10-16T12:18:49;19.90;99.90
14529;DHT22;7351;51.194;4.098;2022-10-16T12:21:18;19.80;99.90
14529;DHT22;7351;51.194;4.098;2022-10-16T12:23:50;19.90;99.90
14529;DHT22;7351;51.194;4.098;2022-10-16T12:26:25;20.00;99.90
14529;DHT22;7351;51.194;4.098;2022-10-16T12:28:53;20.00;99.90
14529;DHT22;7351;51.194;4.098;2022-10-16T12:31:21;20.10;99.90
14529;DHT22;7351;51.194;4.098;2022-10-16T12:33:58;20.20;99.90
14529;DHT22;7351;51.194;4.098;2022-10-16T12:36:30;20.20;99.90
14529;DHT22;7351;51.194;4.098;2022-10-16T12:38:58;20.20;99.90
14529;DHT22;7351;51.194;4.098;2022-10-16T12:41:28;20.20;99.90
14529;DHT22;7351;51.194;4.098;2022-10-16T12:43:56;20.20;99.90
14529;DHT22;7351;51.194;4.098;2022-10-16T12:46:38;20.30;99.90
14529;DHT22;7351;51.194;4.098;2022-10-16T12:49:19;20.30;99.90
14529;DHT22;7351;51.194;4.098;2022-10-16T12:51:49;20.30;99.90
14529;DHT22;7351;51.194;4.098;2022-10-16T12:54:18;20.30;99.90
14529;DHT22;7351;51.194;4.098;2022-10-16T12:56:53;20.20;99.90
14529;DHT22;7351;51.194;4.098;2022-10-16T12:59:31;20.20;99.90
14529;DHT22;7351;51.194;4.098;2022-10-16T13:02:16;20.20;99.90
14529;DHT22;7351;51.194;4.098;2022-10-16T13:05:03;20.30;99.90
14529;DHT22;7351;51.194;4.098;2022-10-16T13:07:46;20.30;99.90
14529;DHT22;7351;51.194;4.098;2022-10-16T13:10:21;20.20;99.90
14529;DHT22;7351;51.194;4.098;2022-10-16T13:13:18;20.30;99.90
14529;DHT22;7351;51.194;4.098;2022-10-16T13:16:02;20.40;99.90
14529;DHT22;7351;51.194;4.098;2022-10-16T13:18:38;20.50;99.90
14529;DHT22;7351;51.194;4.098;2022-10-16T13:21:24;20.60;99.90
14529;DHT22;7351;51.194;4.098;2022-10-16T13:23:59;20.60;99.90
14529;DHT22;7351;51.194;4.098;2022-10-16T13:26:35;20.60;99.90
14529;DHT22;7351;51.194;4.098;2022-10-16T13:29:04;20.60;99.90
14529;DHT22;7351;51.194;4.098;2022-10-16T13:31:32;20.50;99.90
14529;DHT22;7351;51.194;4.098;2022-10-16T13:34:00;20.50;99.90
14529;DHT22;7351;51.194;4.098;2022-10-16T13:36:29;20.40;99.90
14529;DHT22;7351;51.194;4.098;2022-10-16T13:39:10;20.40;99.90
14529;DHT22;7351;51.194;4.098;2022-10-16T13:41:37;20.40;99.90
14529;DHT22;7351;51.194;4.098;2022-10-16T13:44:07;20.30;99.90
14529;DHT22;7351;51.194;4.098;2022-10-16T13:46:38;20.30;99.90
14529;DHT22;7351;51.194;4.098;2022-10-16T13:49:10;20.30;99.90
14529;DHT22;7351;51.194;4.098;2022-10-16T13:51:38;20.40;99.90
14529;DHT22;7351;51.194;4.098;2022-10-16T13:54:09;20.50;99.90
14529;DHT22;7351;51.194;4.098;2022-10-16T13:56:39;20.60;99.90
14529;DHT22;7351;51.194;4.098;2022-10-16T13:59:21;20.70;99.90
14529;DHT22;7351;51.194;4.098;2022-10-16T14:01:49;20.80;99.90
14529;DHT22;7351;51.194;4.098;2022-10-16T14:04:17;20.80;99.90
14529;DHT22;7351;51.194;4.098;2022-10-16T14:06:45;20.80;99.90
14529;DHT22;7351;51.194;4.098;2022-10-16T14:09:21;20.90;99.90
14529;DHT22;7351;51.194;4.098;2022-10-16T14:11:53;20.90;99.90
14529;DHT22;7351;51.194;4.098;2022-10-16T14:14:21;20.90;99.90
14529;DHT22;7351;51.194;4.098;2022-10-16T14:16:49;20.80;99.90
14529;DHT22;7351;51.194;4.098;2022-10-16T14:19:20;20.70;99.90
14529;DHT22;7351;51.194;4.098;2022-10-16T14:21:48;20.60;99.90
14529;DHT22;7351;51.194;4.098;2022-10-16T14:24:26;20.80;99.90
14529;DHT22;7351;51.194;4.098;2022-10-16T14:26:54;20.70;99.90
14529;DHT22;7351;51.194;4.098;2022-10-16T14:29:23;20.70;99.90
14529;DHT22;7351;51.194;4.098;2022-10-16T14:31:57;20.70;99.90
14529;DHT22;7351;51.194;4.098;2022-10-16T14:34:30;20.60;99.90
14529;DHT22;7351;51.194;4.098;2022-10-16T14:37:00;20.60;99.90
14529;DHT22;7351;51.194;4.098;2022-10-16T14:39:34;20.50;99.90
14529;DHT22;7351;51.194;4.098;2022-10-16T14:42:02;20.50;99.90
14529;DHT22;7351;51.194;4.098;2022-10-16T14:44:31;20.40;99.90
14529;DHT22;7351;51.194;4.098;2022-10-16T14:47:07;20.40;99.90
14529;DHT22;7351;51.194;4.098;2022-10-16T14:49:35;20.30;99.90
14529;DHT22;7351;51.194;4.098;2022-10-16T14:52:08;20.40;99.90
14529;DHT22;7351;51.194;4.098;2022-10-16T14:54:36;20.30;99.90
14529;DHT22;7351;51.194;4.098;2022-10-16T14:57:04;20.20;99.90
14529;DHT22;7351;51.194;4.098;2022-10-16T14:59:35;20.30;99.90
14529;DHT22;7351;51.194;4.098;2022-10-16T15:02:16;20.40;99.90
14529;DHT22;7351;51.194;4.098;2022-10-16T15:04:44;20.40;99.90
14529;DHT22;7351;51.194;4.098;2022-10-16T15:07:12;20.40;99.90
14529;DHT22;7351;51.194;4.098;2022-10-16T15:09:40;20.30;99.90
14529;DHT22;7351;51.194;4.098;2022-10-16T15:12:07;20.20;99.90
14529;DHT22;7351;51.194;4.098;2022-10-16T15:14:34;20.00;99.90
14529;DHT22;7351;51.194;4.098;2022-10-16T15:17:01;20.00;99.90
14529;DHT22;7351;51.194;4.098;2022-10-16T15:19:28;20.10;99.90
14529;DHT22;7351;51.194;4.098;2022-10-16T15:21:56;20.10;99.90
14529;DHT22;7351;51.194;4.098;2022-10-16T15:24:23;20.10;99.90
14529;DHT22;7351;51.194;4.098;2022-10-16T15:26:51;20.20;99.90
14529;DHT22;7351;51.194;4.098;2022-10-16T15:29:18;20.20;99.90
14529;DHT22;7351;51.194;4.098;2022-10-16T15:31:45;20.10;99.90
14529;DHT22;7351;51.194;4.098;2022-10-16T15:34:13;20.10;99.90
14529;DHT22;7351;51.194;4.098;2022-10-16T15:36:44;20.10;99.90
14529;DHT22;7351;51.194;4.098;2022-10-16T15:39:13;20.20;99.90
14529;DHT22;7351;51.194;4.098;2022-10-16T15:41:41;20.10;99.90
14529;DHT22;7351;51.194;4.098;2022-10-16T15:44:09;20.00;99.90
14529;DHT22;7351;51.194;4.098;2022-10-16T15:46:36;20.00;99.90
14529;DHT22;7351;51.194;4.098;2022-10-16T15:49:04;20.00;99.90
14529;DHT22;7351;51.194;4.098;2022-10-16T15:51:31;20.00;99.90
14529;DHT22;7351;51.194;4.098;2022-10-16T15:53:59;19.90;99.90
14529;DHT22;7351;51.194;4.098;2022-10-16T15:56:27;19.80;99.90
14529;DHT22;7351;51.194;4.098;2022-10-16T15:58:55;19.80;99.90
14529;DHT22;7351;51.194;4.098;2022-10-16T16:01:25;19.70;99.90
14529;DHT22;7351;51.194;4.098;2022-10-16T16:04:13;19.70;99.90
14529;DHT22;7351;51.194;4.098;2022-10-16T16:06:42;19.70;99.90
14529;DHT22;7351;51.194;4.098;2022-10-16T16:09:10;19.60;99.90
14529;DHT22;7351;51.194;4.098;2022-10-16T16:11:37;19.60;99.90
14529;DHT22;7351;51.194;4.098;2022-10-16T16:14:04;19.50;99.90
14529;DHT22;7351;51.194;4.098;2022-10-16T16:16:32;19.50;99.90
14529;DHT22;7351;51.194;4.098;2022-10-16T16:19:03;19.50;99.90
14529;DHT22;7351;51.194;4.098;2022-10-16T16:21:30;19.40;99.90
14529;DHT22;7351;51.194;4.098;2022-10-16T16:23:58;19.20;99.90
14529;DHT22;7351;51.194;4.098;2022-10-16T16:26:26;19.20;99.90
14529;DHT22;7351;51.194;4.098;2022-10-16T16:28:56;19.30;99.90
14529;DHT22;7351;51.194;4.098;2022-10-16T16:31:24;19.20;99.90
14529;DHT22;7351;51.194;4.098;2022-10-16T16:33:56;19.20;99.90
14529;DHT22;7351;51.194;4.098;2022-10-16T16:36:24;19.20;99.90
14529;DHT22;7351;51.194;4.098;2022-10-16T16:38:51;19.10;99.90
14529;DHT22;7351;51.194;4.098;2022-10-16T16:41:20;19.10;99.90
14529;DHT22;7351;51.194;4.098;2022-10-16T16:43:47;19.00;99.90
14529;DHT22;7351;51.194;4.098;2022-10-16T16:46:17;18.90;99.90
14529;DHT22;7351;51.194;4.098;2022-10-16T16:48:44;18.90;99.90
14529;DHT22;7351;51.194;4.098;2022-10-16T16:51:15;18.90;99.90
14529;DHT22;7351;51.194;4.098;2022-10-16T16:53:45;18.90;99.90
14529;DHT22;7351;51.194;4.098;2022-10-16T16:56:12;19.00;99.90
14529;DHT22;7351;51.194;4.098;2022-10-16T16:58:40;19.10;99.90
14529;DHT22;7351;51.194;4.098;2022-10-16T17:01:09;19.00;99.90
14529;DHT22;7351;51.194;4.098;2022-10-16T17:03:37;18.90;99.90
14529;DHT22;7351;51.194;4.098;2022-10-16T17:06:05;18.80;99.90
14529;DHT22;7351;51.194;4.098;2022-10-16T17:08:35;18.90;99.90
14529;DHT22;7351;51.194;4.098;2022-10-16T17:11:02;18.70;99.90
14529;DHT22;7351;51.194;4.098;2022-10-16T17:13:31;18.70;99.90
14529;DHT22;7351;51.194;4.098;2022-10-16T17:16:00;18.70;99.90
14529;DHT22;7351;51.194;4.098;2022-10-16T17:18:27;18.80;99.90
14529;DHT22;7351;51.194;4.098;2022-10-16T17:20:54;18.80;99.90
14529;DHT22;7351;51.194;4.098;2022-10-16T17:23:21;18.90;99.90
14529;DHT22;7351;51.194;4.098;2022-10-16T17:25:50;18.90;99.90
14529;DHT22;7351;51.194;4.098;2022-10-16T17:28:17;18.90;99.90
14529;DHT22;7351;51.194;4.098;2022-10-16T17:30:44;18.90;99.90
14529;DHT22;7351;51.194;4.098;2022-10-16T17:33:14;19.00;99.90
14529;DHT22;7351;51.194;4.098;2022-10-16T17:35:43;19.00;99.90
14529;DHT22;7351;51.194;4.098;2022-10-16T17:38:12;19.00;99.90
14529;DHT22;7351;51.194;4.098;2022-10-16T17:40:39;19.00;99.90
14529;DHT22;7351;51.194;4.098;2022-10-16T17:43:09;19.00;99.90
14529;DHT22;7351;51.194;4.098;2022-10-16T17:45:37;19.00;99.90
14529;DHT22;7351;51.194;4.098;2022-10-16T17:48:04;18.90;99.90
14529;DHT22;7351;51.194;4.098;2022-10-16T17:50:32;18.90;99.90
14529;DHT22;7351;51.194;4.098;2022-10-16T17:52:59;18.80;99.90
14529;DHT22;7351;51.194;4.098;2022-10-16T17:55:26;18.10;99.90
14529;DHT22;7351;51.194;4.098;2022-10-16T17:57:53;18.50;99.90
14529;DHT22;7351;51.194;4.098;2022-10-16T18:00:21;18.40;99.90
14529;DHT22;7351;51.194;4.098;2022-10-16T18:02:49;18.30;99.90
14529;DHT22;7351;51.194;4.098;2022-10-16T18:05:16;18.30;99.90
14529;DHT22;7351;51.194;4.098;2022-10-16T18:07:43;18.20;99.90
14529;DHT22;7351;51.194;4.098;2022-10-16T18:10:10;18.30;99.90
14529;DHT22;7351;51.194;4.098;2022-10-16T18:12:37;18.30;99.90
14529;DHT22;7351;51.194;4.098;2022-10-16T18:15:06;18.20;99.90
14529;DHT22;7351;51.194;4.098;2022-10-16T18:17:35;18.20;99.90
14529;DHT22;7351;51.194;4.098;2022-10-16T18:20:03;18.20;99.90
14529;DHT22;7351;51.194;4.098;2022-10-16T18:22:31;18.10;99.90
14529;DHT22;7351;51.194;4.098;2022-10-16T18:25:00;18.20;99.90
14529;DHT22;7351;51.194;4.098;2022-10-16T18:27:29;18.10;99.90
14529;DHT22;7351;51.194;4.098;2022-10-16T18:29:56;18.20;99.90
14529;DHT22;7351;51.194;4.098;2022-10-16T18:32:23;18.20;99.90
14529;DHT22;7351;51.194;4.098;2022-10-16T18:34:51;18.20;99.90
14529;DHT22;7351;51.194;4.098;2022-10-16T18:37:19;18.30;99.90
14529;DHT22;7351;51.194;4.098;2022-10-16T18:39:46;18.40;99.90
14529;DHT22;7351;51.194;4.098;2022-10-16T18:42:14;18.30;99.90
14529;DHT22;7351;51.194;4.098;2022-10-16T18:44:41;17.80;99.90
14529;DHT22;7351;51.194;4.098;2022-10-16T18:47:08;18.10;99.90
14529;DHT22;7351;51.194;4.098;2022-10-16T18:49:35;18.00;99.90
14529;DHT22;7351;51.194;4.098;2022-10-16T18:52:04;17.90;99.90
14529;DHT22;7351;51.194;4.098;2022-10-16T18:54:31;17.80;99.90
14529;DHT22;7351;51.194;4.098;2022-10-16T18:56:59;17.80;99.90
14529;DHT22;7351;51.194;4.098;2022-10-16T18:59:26;17.70;99.90
14529;DHT22;7351;51.194;4.098;2022-10-16T19:01:53;17.60;99.90
14529;DHT22;7351;51.194;4.098;2022-10-16T19:04:20;17.60;99.90
14529;DHT22;7351;51.194;4.098;2022-10-16T19:06:50;17.60;99.90
14529;DHT22;7351;51.194;4.098;2022-10-16T19:09:21;17.60;99.90
14529;DHT22;7351;51.194;4.098;2022-10-16T19:11:50;17.50;99.90
14529;DHT22;7351;51.194;4.098;2022-10-16T19:14:22;17.60;99.90
14529;DHT22;7351;51.194;4.098;2022-10-16T19:16:49;17.50;99.90
14529;DHT22;7351;51.194;4.098;2022-10-16T19:19:17;17.50;99.90
14529;DHT22;7351;51.194;4.098;2022-10-16T19:21:44;17.60;99.90
14529;DHT22;7351;51.194;4.098;2022-10-16T19:24:13;17.60;99.90
14529;DHT22;7351;51.194;4.098;2022-10-16T19:26:42;17.60;99.90
14529;DHT22;7351;51.194;4.098;2022-10-16T19:29:10;17.60;99.90
14529;DHT22;7351;51.194;4.098;2022-10-16T19:31:38;17.60;99.90
14529;DHT22;7351;51.194;4.098;2022-10-16T19:34:05;17.50;99.90
14529;DHT22;7351;51.194;4.098;2022-10-16T19:36:34;17.60;99.90
14529;DHT22;7351;51.194;4.098;2022-10-16T19:39:04;17.50;99.90
14529;DHT22;7351;51.194;4.098;2022-10-16T19:41:31;17.50;99.90
14529;DHT22;7351;51.194;4.098;2022-10-16T19:44:02;17.50;99.90
14529;DHT22;7351;51.194;4.098;2022-10-16T19:46:29;17.60;99.90
14529;DHT22;7351;51.194;4.098;2022-10-16T19:48:58;17.60;99.90
14529;DHT22;7351;51.194;4.098;2022-10-16T19:51:26;17.60;99.90
14529;DHT22;7351;51.194;4.098;2022-10-16T19:53:55;17.40;99.90
14529;DHT22;7351;51.194;4.098;2022-10-16T19:56:24;17.60;99.90
14529;DHT22;7351;51.194;4.098;2022-10-16T19:58:52;17.60;99.90
14529;DHT22;7351;51.194;4.098;2022-10-16T20:01:22;17.70;99.90
14529;DHT22;7351;51.194;4.098;2022-10-16T20:03:50;17.50;99.90
14529;DHT22;7351;51.194;4.098;2022-10-16T20:06:20;17.50;99.90
14529;DHT22;7351;51.194;4.098;2022-10-16T20:08:48;17.50;99.90
14529;DHT22;7351;51.194;4.098;2022-10-16T20:11:19;17.50;99.90
14529;DHT22;7351;51.194;4.098;2022-10-16T20:13:46;17.50;99.90
14529;DHT22;7351;51.194;4.098;2022-10-16T20:16:14;17.30;99.90
14529;DHT22;7351;51.194;4.098;2022-10-16T20:18:46;17.20;99.90
14529;DHT22;7351;51.194;4.098;2022-10-16T20:21:17;17.10;99.90
14529;DHT22;7351;51.194;4.098;2022-10-16T20:23:44;17.00;99.90
14529;DHT22;7351;51.194;4.098;2022-10-16T20:26:14;17.00;99.90
14529;DHT22;7351;51.194;4.098;2022-10-16T20:28:42;17.00;99.90
14529;DHT22;7351;51.194;4.098;2022-10-16T20:31:11;17.10;99.90
14529;DHT22;7351;51.194;4.098;2022-10-16T20:33:40;17.00;99.90
14529;DHT22;7351;51.194;4.098;2022-10-16T20:36:11;16.90;99.90
14529;DHT22;7351;51.194;4.098;2022-10-16T20:38:38;16.90;99.90
14529;DHT22;7351;51.194;4.098;2022-10-16T20:41:06;16.90;99.90
14529;DHT22;7351;51.194;4.098;2022-10-16T20:43:34;16.90;99.90
14529;DHT22;7351;51.194;4.098;2022-10-16T20:46:03;16.90;99.90
14529;DHT22;7351;51.194;4.098;2022-10-16T20:48:30;16.80;99.90
14529;DHT22;7351;51.194;4.098;2022-10-16T20:50:58;16.80;99.90
14529;DHT22;7351;51.194;4.098;2022-10-16T20:53:27;16.80;99.90
14529;DHT22;7351;51.194;4.098;2022-10-16T20:55:54;16.80;99.90
14529;DHT22;7351;51.194;4.098;2022-10-16T20:58:21;16.70;99.90
14529;DHT22;7351;51.194;4.098;2022-10-16T21:00:48;16.70;99.90
14529;DHT22;7351;51.194;4.098;2022-10-16T21:03:15;16.70;99.90
14529;DHT22;7351;51.194;4.098;2022-10-16T21:05:42;16.70;99.90
14529;DHT22;7351;51.194;4.098;2022-10-16T21:08:09;16.60;99.90
14529;DHT22;7351;51.194;4.098;2022-10-16T21:10:38;16.60;99.90
14529;DHT22;7351;51.194;4.098;2022-10-16T21:13:05;16.60;99.90
14529;DHT22;7351;51.194;4.098;2022-10-16T21:15:32;16.50;99.90
14529;DHT22;7351;51.194;4.098;2022-10-16T21:17:59;16.50;99.90
14529;DHT22;7351;51.194;4.098;2022-10-16T21:20:26;16.40;99.90
14529;DHT22;7351;51.194;4.098;2022-10-16T21:22:53;16.40;99.90
14529;DHT22;7351;51.194;4.098;2022-10-16T21:25:20;16.50;99.90
14529;DHT22;7351;51.194;4.098;2022-10-16T21:27:48;16.40;99.90
14529;DHT22;7351;51.194;4.098;2022-10-16T21:30:15;16.50;99.90
14529;DHT22;7351;51.194;4.098;2022-10-16T21:32:42;16.50;99.90
14529;DHT22;7351;51.194;4.098;2022-10-16T21:35:09;16.50;99.90
14529;DHT22;7351;51.194;4.098;2022-10-16T21:37:36;16.50;99.90
14529;DHT22;7351;51.194;4.098;2022-10-16T21:40:04;16.60;99.90
14529;DHT22;7351;51.194;4.098;2022-10-16T21:42:31;16.50;99.90
14529;DHT22;7351;51.194;4.098;2022-10-16T21:45:00;16.50;99.90
14529;DHT22;7351;51.194;4.098;2022-10-16T21:47:27;16.50;99.90
14529;DHT22;7351;51.194;4.098;2022-10-16T21:49:54;16.50;99.90
14529;DHT22;7351;51.194;4.098;2022-10-16T21:52:21;16.50;99.90
14529;DHT22;7351;51.194;4.098;2022-10-16T21:54:49;16.60;99.90
14529;DHT22;7351;51.194;4.098;2022-10-16T21:57:16;16.60;99.90
14529;DHT22;7351;51.194;4.098;2022-10-16T21:59:43;16.50;99.90
14529;DHT22;7351;51.194;4.098;2022-10-16T22:02:11;16.50;99.90
14529;DHT22;7351;51.194;4.098;2022-10-16T22:04:38;16.50;99.90
14529;DHT22;7351;51.194;4.098;2022-10-16T22:07:05;16.50;99.90
14529;DHT22;7351;51.194;4.098;2022-10-16T22:09:32;16.50;99.90
14529;DHT22;7351;51.194;4.098;2022-10-16T22:11:59;16.50;99.90
14529;DHT22;7351;51.194;4.098;2022-10-16T22:14:26;16.50;99.90
14529;DHT22;7351;51.194;4.098;2022-10-16T22:16:53;16.50;99.90
14529;DHT22;7351;51.194;4.098;2022-10-16T22:19:22;16.60;99.90
14529;DHT22;7351;51.194;4.098;2022-10-16T22:21:49;16.50;99.90
14529;DHT22;7351;51.194;4.098;2022-10-16T22:24:19;16.40;99.90
14529;DHT22;7351;51.194;4.098;2022-10-16T22:26:45;16.40;99.90
14529;DHT22;7351;51.194;4.098;2022-10-16T22:29:14;16.50;99.90
14529;DHT22;7351;51.194;4.098;2022-10-16T22:31:41;16.50;99.90
14529;DHT22;7351;51.194;4.098;2022-10-16T22:34:11;16.50;99.90
14529;DHT22;7351;51.194;4.098;2022-10-16T22:36:39;16.60;99.90
14529;DHT22;7351;51.194;4.098;2022-10-16T22:39:06;16.60;99.90
14529;DHT22;7351;51.194;4.098;2022-10-16T22:41:34;16.60;99.90
14529;DHT22;7351;51.194;4.098;2022-10-16T22:44:01;16.60;99.90
14529;DHT22;7351;51.194;4.098;2022-10-16T22:46:29;16.60;99.90
14529;DHT22;7351;51.194;4.098;2022-10-16T22:48:57;16.70;99.90
14529;DHT22;7351;51.194;4.098;2022-10-16T22:51:25;16.70;99.90
14529;DHT22;7351;51.194;4.098;2022-10-16T22:53:56;16.70;99.90
14529;DHT22;7351;51.194;4.098;2022-10-16T22:56:23;16.70;99.90
14529;DHT22;7351;51.194;4.098;2022-10-16T22:58:50;16.70;99.90
14529;DHT22;7351;51.194;4.098;2022-10-16T23:01:20;16.60;99.90
14529;DHT22;7351;51.194;4.098;2022-10-16T23:03:48;16.60;99.90
14529;DHT22;7351;51.194;4.098;2022-10-16T23:06:15;16.60;99.90
14529;DHT22;7351;51.194;4.098;2022-10-16T23:08:42;16.60;99.90
14529;DHT22;7351;51.194;4.098;2022-10-16T23:11:11;16.60;99.90
14529;DHT22;7351;51.194;4.098;2022-10-16T23:13:40;16.60;99.90
14529;DHT22;7351;51.194;4.098;2022-10-16T23:16:11;16.50;99.90
14529;DHT22;7351;51.194;4.098;2022-10-16T23:18:38;16.50;99.90
14529;DHT22;7351;51.194;4.098;2022-10-16T23:21:07;16.60;99.90
14529;DHT22;7351;51.194;4.098;2022-10-16T23:23:35;16.60;99.90
14529;DHT22;7351;51.194;4.098;2022-10-16T23:26:02;16.60;99.90
14529;DHT22;7351;51.194;4.098;2022-10-16T23:28:31;16.40;99.90
14529;DHT22;7351;51.194;4.098;2022-10-16T23:30:58;16.40;99.90
14529;DHT22;7351;51.194;4.098;2022-10-16T23:33:25;16.30;99.90
14529;DHT22;7351;51.194;4.098;2022-10-16T23:35:52;16.20;99.90
14529;DHT22;7351;51.194;4.098;2022-10-16T23:38:19;16.30;99.90
14529;DHT22;7351;51.194;4.098;2022-10-16T23:40:46;16.20;99.90
14529;DHT22;7351;51.194;4.098;2022-10-16T23:43:13;16.20;99.90
14529;DHT22;7351;51.194;4.098;2022-10-16T23:45:42;16.20;99.90
14529;DHT22;7351;51.194;4.098;2022-10-16T23:48:09;16.20;99.90
14529;DHT22;7351;51.194;4.098;2022-10-16T23:50:39;16.30;99.90
14529;DHT22;7351;51.194;4.098;2022-10-16T23:53:06;16.30;99.90
14529;DHT22;7351;51.194;4.098;2022-10-16T23:55:33;16.30;99.90
14529;DHT22;7351;51.194;4.098;2022-10-16T23:58:01;16.40;99.90
